sensor_id;sensor_type;location;lat;lon;timestamp;P1;P2;P0
43280;PMS5003;62175;49.416;8.690;2023-09-12T00:00:40;17;16;
43280;PMS5003;62175;49.416;8.690;2023-09-12T00:03:07;17;16;
43280;PMS5003;62175;49.416;8.690;2023-09-12T00:05:35;18;18;
43280;PMS5003;62175;49.416;8.690;2023-09-12T00:08:02;20;20;
43280;PMS5003;62175;49.416;8.690;2023-09-12T00:10:29;16;16;
43280;PMS5003;62175;49.416;8.690;2023-09-12T00:12:56;18;17;
43280;PMS5003;62175;49.416;8.690;2023-09-12T00:15:24;16;16;
43280;PMS5003;62175;49.416;8.690;2023-09-12T00:17:51;18;18;
43280;PMS5003;62175;49.416;8.690;2023-09-12T00:20:18;17;17;
43280;PMS5003;62175;49.416;8.690;2023-09-12T00:22:46;21;19;
43280;PMS5003;62175;49.416;8.690;2023-09-12T00:25:13;20;19;
43280;PMS5003;62175;49.416;8.690;2023-09-12T00:27:40;20;18;
43280;PMS5003;62175;49.416;8.690;2023-09-12T00:30:07;21;19;
43280;PMS5003;62175;49.416;8.690;2023-09-12T00:32:35;18;17;
43280;PMS5003;62175;49.416;8.690;2023-09-12T00:35:02;22;19;
43280;PMS5003;62175;49.416;8.690;2023-09-12T00:37:30;21;21;
43280;PMS5003;62175;49.416;8.690;2023-09-12T00:39:57;23;22;
43280;PMS5003;62175;49.416;8.690;2023-09-12T00:42:25;22;20;
43280;PMS5003;62175;49.416;8.690;2023-09-12T00:44:52;19;18;
43280;PMS5003;62175;49.416;8.690;2023-09-12T00:47:20;21;20;
43280;PMS5003;62175;49.416;8.690;2023-09-12T00:49:48;20;19;
43280;PMS5003;62175;49.416;8.690;2023-09-12T00:52:17;22;20;
43280;PMS5003;62175;49.416;8.690;2023-09-12T00:54:45;18;18;
43280;PMS5003;62175;49.416;8.690;2023-09-12T00:57:12;17;16;
43280;PMS5003;62175;49.416;8.690;2023-09-12T00:59:40;16;14;
43280;PMS5003;62175;49.416;8.690;2023-09-12T01:02:08;18;17;
43280;PMS5003;62175;49.416;8.690;2023-09-12T01:04:35;17;15;
43280;PMS5003;62175;49.416;8.690;2023-09-12T01:07:03;21;18;
43280;PMS5003;62175;49.416;8.690;2023-09-12T01:09:31;18;16;
43280;PMS5003;62175;49.416;8.690;2023-09-12T01:11:59;14;13;
43280;PMS5003;62175;49.416;8.690;2023-09-12T01:14:26;13;13;
43280;PMS5003;62175;49.416;8.690;2023-09-12T01:16:54;18;18;
43280;PMS5003;62175;49.416;8.690;2023-09-12T01:19:21;17;15;
43280;PMS5003;62175;49.416;8.690;2023-09-12T01:22:02;16;14;
43280;PMS5003;62175;49.416;8.690;2023-09-12T01:24:48;16;15;
43280;PMS5003;62175;49.416;8.690;2023-09-12T01:27:45;16;15;
43280;PMS5003;62175;49.416;8.690;2023-09-12T01:30:16;15;13;
43280;PMS5003;62175;49.416;8.690;2023-09-12T01:32:44;15;15;
43280;PMS5003;62175;49.416;8.690;2023-09-12T01:35:12;15;15;
43280;PMS5003;62175;49.416;8.690;2023-09-12T01:37:39;13;13;
43280;PMS5003;62175;49.416;8.690;2023-09-12T01:40:07;19;19;
43280;PMS5003;62175;49.416;8.690;2023-09-12T01:42:36;18;16;
43280;PMS5003;62175;49.416;8.690;2023-09-12T01:45:04;17;15;
43280;PMS5003;62175;49.416;8.690;2023-09-12T01:47:36;18;17;
43280;PMS5003;62175;49.416;8.690;2023-09-12T01:50:05;18;16;
43280;PMS5003;62175;49.416;8.690;2023-09-12T01:52:35;18;17;
43280;PMS5003;62175;49.416;8.690;2023-09-12T01:55:03;18;17;
43280;PMS5003;62175;49.416;8.690;2023-09-12T01:57:31;21;17;
43280;PMS5003;62175;49.416;8.690;2023-09-12T01:59:59;17;16;
43280;PMS5003;62175;49.416;8.690;2023-09-12T02:02:25;18;17;
43280;PMS5003;62175;49.416;8.690;2023-09-12T02:04:54;18;17;
43280;PMS5003;62175;49.416;8.690;2023-09-12T02:07:33;16;15;
43280;PMS5003;62175;49.416;8.690;2023-09-12T02:10:02;19;17;
43280;PMS5003;62175;49.416;8.690;2023-09-12T02:12:30;19;19;
43280;PMS5003;62175;49.416;8.690;2023-09-12T02:14:58;19;18;
43280;PMS5003;62175;49.416;8.690;2023-09-12T02:17:25;16;16;
43280;PMS5003;62175;49.416;8.690;2023-09-12T02:19:51;15;14;
43280;PMS5003;62175;49.416;8.690;2023-09-12T02:22:19;19;19;
43280;PMS5003;62175;49.416;8.690;2023-09-12T02:24:46;17;16;
43280;PMS5003;62175;49.416;8.690;2023-09-12T02:27:13;19;18;
43280;PMS5003;62175;49.416;8.690;2023-09-12T02:29:40;16;15;
43280;PMS5003;62175;49.416;8.690;2023-09-12T02:32:08;18;16;
43280;PMS5003;62175;49.416;8.690;2023-09-12T02:34:36;16;16;
43280;PMS5003;62175;49.416;8.690;2023-09-12T02:37:03;19;19;
43280;PMS5003;62175;49.416;8.690;2023-09-12T02:39:30;15;15;
43280;PMS5003;62175;49.416;8.690;2023-09-12T02:41:57;22;18;
43280;PMS5003;62175;49.416;8.690;2023-09-12T02:44:23;20;19;
43280;PMS5003;62175;49.416;8.690;2023-09-12T02:46:50;18;16;
43280;PMS5003;62175;49.416;8.690;2023-09-12T02:49:17;20;18;
43280;PMS5003;62175;49.416;8.690;2023-09-12T02:51:44;19;19;
43280;PMS5003;62175;49.416;8.690;2023-09-12T02:54:12;13;12;
43280;PMS5003;62175;49.416;8.690;2023-09-12T02:56:39;17;16;
43280;PMS5003;62175;49.416;8.690;2023-09-12T02:59:07;17;15;
43280;PMS5003;62175;49.416;8.690;2023-09-12T03:01:34;16;15;
43280;PMS5003;62175;49.416;8.690;2023-09-12T03:04:01;19;18;
43280;PMS5003;62175;49.416;8.690;2023-09-12T03:06:29;14;14;
43280;PMS5003;62175;49.416;8.690;2023-09-12T03:08:56;15;13;
43280;PMS5003;62175;49.416;8.690;2023-09-12T03:11:25;14;13;
43280;PMS5003;62175;49.416;8.690;2023-09-12T03:13:52;14;14;
43280;PMS5003;62175;49.416;8.690;2023-09-12T03:16:19;17;13;
43280;PMS5003;62175;49.416;8.690;2023-09-12T03:18:47;16;15;
43280;PMS5003;62175;49.416;8.690;2023-09-12T03:21:13;15;15;
43280;PMS5003;62175;49.416;8.690;2023-09-12T03:23:40;14;13;
43280;PMS5003;62175;49.416;8.690;2023-09-12T03:26:07;19;16;
43280;PMS5003;62175;49.416;8.690;2023-09-12T03:28:34;15;15;
43280;PMS5003;62175;49.416;8.690;2023-09-12T03:31:07;15;14;
43280;PMS5003;62175;49.416;8.690;2023-09-12T03:33:35;16;16;
43280;PMS5003;62175;49.416;8.690;2023-09-12T03:36:02;12;12;
43280;PMS5003;62175;49.416;8.690;2023-09-12T03:38:29;14;13;
43280;PMS5003;62175;49.416;8.690;2023-09-12T03:40:56;15;15;
43280;PMS5003;62175;49.416;8.690;2023-09-12T03:43:23;21;20;
43280;PMS5003;62175;49.416;8.690;2023-09-12T03:45:51;18;17;
43280;PMS5003;62175;49.416;8.690;2023-09-12T03:48:18;15;15;
43280;PMS5003;62175;49.416;8.690;2023-09-12T03:50:45;17;16;
43280;PMS5003;62175;49.416;8.690;2023-09-12T03:53:14;15;15;
43280;PMS5003;62175;49.416;8.690;2023-09-12T03:55:41;17;15;
43280;PMS5003;62175;49.416;8.690;2023-09-12T03:58:09;15;14;
43280;PMS5003;62175;49.416;8.690;2023-09-12T04:00:36;18;18;
43280;PMS5003;62175;49.416;8.690;2023-09-12T04:03:03;13;13;
43280;PMS5003;62175;49.416;8.690;2023-09-12T04:05:31;17;16;
43280;PMS5003;62175;49.416;8.690;2023-09-12T04:07:58;21;20;
43280;PMS5003;62175;49.416;8.690;2023-09-12T04:10:25;21;20;
43280;PMS5003;62175;49.416;8.690;2023-09-12T04:12:52;18;18;
43280;PMS5003;62175;49.416;8.690;2023-09-12T04:15:19;20;19;
43280;PMS5003;62175;49.416;8.690;2023-09-12T04:17:46;20;19;
43280;PMS5003;62175;49.416;8.690;2023-09-12T04:20:13;17;16;
43280;PMS5003;62175;49.416;8.690;2023-09-12T04:22:41;23;20;
43280;PMS5003;62175;49.416;8.690;2023-09-12T04:25:08;21;19;
43280;PMS5003;62175;49.416;8.690;2023-09-12T04:27:35;21;19;
43280;PMS5003;62175;49.416;8.690;2023-09-12T04:30:03;20;19;
43280;PMS5003;62175;49.416;8.690;2023-09-12T04:32:31;22;22;
43280;PMS5003;62175;49.416;8.690;2023-09-12T04:34:58;21;18;
43280;PMS5003;62175;49.416;8.690;2023-09-12T04:37:24;20;20;
43280;PMS5003;62175;49.416;8.690;2023-09-12T04:39:51;24;23;
43280;PMS5003;62175;49.416;8.690;2023-09-12T04:42:18;20;19;
43280;PMS5003;62175;49.416;8.690;2023-09-12T04:44:45;17;17;
43280;PMS5003;62175;49.416;8.690;2023-09-12T04:47:12;23;22;
43280;PMS5003;62175;49.416;8.690;2023-09-12T04:49:38;16;16;
43280;PMS5003;62175;49.416;8.690;2023-09-12T04:52:06;18;16;
43280;PMS5003;62175;49.416;8.690;2023-09-12T04:54:33;21;20;
43280;PMS5003;62175;49.416;8.690;2023-09-12T04:57:00;18;18;
43280;PMS5003;62175;49.416;8.690;2023-09-12T04:59:27;22;19;
43280;PMS5003;62175;49.416;8.690;2023-09-12T05:01:54;18;18;
43280;PMS5003;62175;49.416;8.690;2023-09-12T05:04:20;18;17;
43280;PMS5003;62175;49.416;8.690;2023-09-12T05:06:47;17;15;
43280;PMS5003;62175;49.416;8.690;2023-09-12T05:09:14;17;17;
43280;PMS5003;62175;49.416;8.690;2023-09-12T05:11:41;18;17;
43280;PMS5003;62175;49.416;8.690;2023-09-12T05:14:08;17;16;
43280;PMS5003;62175;49.416;8.690;2023-09-12T05:16:34;16;15;
43280;PMS5003;62175;49.416;8.690;2023-09-12T05:19:01;20;18;
43280;PMS5003;62175;49.416;8.690;2023-09-12T05:21:28;18;17;
43280;PMS5003;62175;49.416;8.690;2023-09-12T05:23:54;18;18;
43280;PMS5003;62175;49.416;8.690;2023-09-12T05:26:21;17;16;
43280;PMS5003;62175;49.416;8.690;2023-09-12T05:28:48;18;17;
43280;PMS5003;62175;49.416;8.690;2023-09-12T05:31:15;18;16;
43280;PMS5003;62175;49.416;8.690;2023-09-12T05:33:42;17;16;
43280;PMS5003;62175;49.416;8.690;2023-09-12T05:36:09;22;19;
43280;PMS5003;62175;49.416;8.690;2023-09-12T05:38:36;20;18;
43280;PMS5003;62175;49.416;8.690;2023-09-12T05:41:03;16;15;
43280;PMS5003;62175;49.416;8.690;2023-09-12T05:43:30;19;18;
43280;PMS5003;62175;49.416;8.690;2023-09-12T05:45:57;16;15;
43280;PMS5003;62175;49.416;8.690;2023-09-12T05:48:24;21;21;
43280;PMS5003;62175;49.416;8.690;2023-09-12T05:50:51;18;18;
43280;PMS5003;62175;49.416;8.690;2023-09-12T05:53:18;17;16;
43280;PMS5003;62175;49.416;8.690;2023-09-12T05:55:45;18;17;
43280;PMS5003;62175;49.416;8.690;2023-09-12T05:58:11;16;15;
43280;PMS5003;62175;49.416;8.690;2023-09-12T06:00:38;15;15;
43280;PMS5003;62175;49.416;8.690;2023-09-12T06:03:05;15;14;
43280;PMS5003;62175;49.416;8.690;2023-09-12T06:05:32;18;17;
43280;PMS5003;62175;49.416;8.690;2023-09-12T06:08:00;18;16;
43280;PMS5003;62175;49.416;8.690;2023-09-12T06:10:27;17;16;
43280;PMS5003;62175;49.416;8.690;2023-09-12T06:12:54;20;20;
43280;PMS5003;62175;49.416;8.690;2023-09-12T06:15:21;23;20;
43280;PMS5003;62175;49.416;8.690;2023-09-12T06:17:48;16;16;
43280;PMS5003;62175;49.416;8.690;2023-09-12T06:20:16;19;17;
43280;PMS5003;62175;49.416;8.690;2023-09-12T06:22:44;17;16;
43280;PMS5003;62175;49.416;8.690;2023-09-12T06:25:11;15;14;
43280;PMS5003;62175;49.416;8.690;2023-09-12T06:27:40;20;20;
43280;PMS5003;62175;49.416;8.690;2023-09-12T06:30:09;19;17;
43280;PMS5003;62175;49.416;8.690;2023-09-12T06:32:37;19;16;
43280;PMS5003;62175;49.416;8.690;2023-09-12T06:35:06;22;21;
43280;PMS5003;62175;49.416;8.690;2023-09-12T06:37:34;15;14;
43280;PMS5003;62175;49.416;8.690;2023-09-12T06:40:01;17;16;
43280;PMS5003;62175;49.416;8.690;2023-09-12T06:42:28;17;16;
43280;PMS5003;62175;49.416;8.690;2023-09-12T06:44:54;19;17;
43280;PMS5003;62175;49.416;8.690;2023-09-12T06:47:21;17;16;
43280;PMS5003;62175;49.416;8.690;2023-09-12T06:49:49;15;14;
43280;PMS5003;62175;49.416;8.690;2023-09-12T06:52:16;16;14;
43280;PMS5003;62175;49.416;8.690;2023-09-12T06:54:43;18;17;
43280;PMS5003;62175;49.416;8.690;2023-09-12T06:57:10;14;13;
43280;PMS5003;62175;49.416;8.690;2023-09-12T06:59:37;18;16;
43280;PMS5003;62175;49.416;8.690;2023-09-12T07:02:04;23;21;
43280;PMS5003;62175;49.416;8.690;2023-09-12T07:04:32;17;17;
43280;PMS5003;62175;49.416;8.690;2023-09-12T07:06:59;16;16;
43280;PMS5003;62175;49.416;8.690;2023-09-12T07:09:27;17;17;
43280;PMS5003;62175;49.416;8.690;2023-09-12T07:11:54;16;15;
43280;PMS5003;62175;49.416;8.690;2023-09-12T07:14:21;17;17;
43280;PMS5003;62175;49.416;8.690;2023-09-12T07:16:49;19;18;
43280;PMS5003;62175;49.416;8.690;2023-09-12T07:19:16;21;20;
43280;PMS5003;62175;49.416;8.690;2023-09-12T07:21:43;20;18;
43280;PMS5003;62175;49.416;8.690;2023-09-12T07:24:11;19;18;
43280;PMS5003;62175;49.416;8.690;2023-09-12T07:26:38;17;16;
43280;PMS5003;62175;49.416;8.690;2023-09-12T07:29:05;17;17;
43280;PMS5003;62175;49.416;8.690;2023-09-12T07:31:32;19;17;
43280;PMS5003;62175;49.416;8.690;2023-09-12T07:33:59;21;19;
43280;PMS5003;62175;49.416;8.690;2023-09-12T07:36:26;23;20;
43280;PMS5003;62175;49.416;8.690;2023-09-12T07:38:53;17;16;
43280;PMS5003;62175;49.416;8.690;2023-09-12T07:41:20;18;17;
43280;PMS5003;62175;49.416;8.690;2023-09-12T07:43:46;17;16;
43280;PMS5003;62175;49.416;8.690;2023-09-12T07:46:13;18;16;
43280;PMS5003;62175;49.416;8.690;2023-09-12T07:48:40;14;14;
43280;PMS5003;62175;49.416;8.690;2023-09-12T07:51:11;18;17;
43280;PMS5003;62175;49.416;8.690;2023-09-12T07:53:40;15;13;
43280;PMS5003;62175;49.416;8.690;2023-09-12T07:56:08;16;15;
43280;PMS5003;62175;49.416;8.690;2023-09-12T07:58:36;23;23;
43280;PMS5003;62175;49.416;8.690;2023-09-12T08:01:06;44;41;
43280;PMS5003;62175;49.416;8.690;2023-09-12T08:03:35;31;29;
43280;PMS5003;62175;49.416;8.690;2023-09-12T08:06:06;17;16;
43280;PMS5003;62175;49.416;8.690;2023-09-12T08:08:36;36;36;
43280;PMS5003;62175;49.416;8.690;2023-09-12T08:11:04;18;17;
43280;PMS5003;62175;49.416;8.690;2023-09-12T08:13:34;21;18;
43280;PMS5003;62175;49.416;8.690;2023-09-12T08:16:03;17;16;
43280;PMS5003;62175;49.416;8.690;2023-09-12T08:18:30;19;18;
43280;PMS5003;62175;49.416;8.690;2023-09-12T08:20:57;18;18;
43280;PMS5003;62175;49.416;8.690;2023-09-12T08:23:25;30;28;
43280;PMS5003;62175;49.416;8.690;2023-09-12T08:25:51;27;27;
43280;PMS5003;62175;49.416;8.690;2023-09-12T08:28:18;17;16;
43280;PMS5003;62175;49.416;8.690;2023-09-12T08:30:46;17;17;
43280;PMS5003;62175;49.416;8.690;2023-09-12T08:33:14;20;18;
43280;PMS5003;62175;49.416;8.690;2023-09-12T08:35:41;27;27;
43280;PMS5003;62175;49.416;8.690;2023-09-12T08:38:08;19;18;
43280;PMS5003;62175;49.416;8.690;2023-09-12T08:40:35;40;39;
43280;PMS5003;62175;49.416;8.690;2023-09-12T08:43:02;26;24;
43280;PMS5003;62175;49.416;8.690;2023-09-12T08:45:29;20;17;
43280;PMS5003;62175;49.416;8.690;2023-09-12T08:47:57;21;20;
43280;PMS5003;62175;49.416;8.690;2023-09-12T08:50:26;20;20;
43280;PMS5003;62175;49.416;8.690;2023-09-12T08:52:53;23;22;
43280;PMS5003;62175;49.416;8.690;2023-09-12T08:55:21;19;17;
43280;PMS5003;62175;49.416;8.690;2023-09-12T08:57:48;20;19;
43280;PMS5003;62175;49.416;8.690;2023-09-12T09:00:17;18;16;
43280;PMS5003;62175;49.416;8.690;2023-09-12T09:02:44;17;16;
43280;PMS5003;62175;49.416;8.690;2023-09-12T09:05:12;21;20;
43280;PMS5003;62175;49.416;8.690;2023-09-12T09:07:41;27;25;
43280;PMS5003;62175;49.416;8.690;2023-09-12T09:10:13;44;43;
43280;PMS5003;62175;49.416;8.690;2023-09-12T09:12:42;25;24;
43280;PMS5003;62175;49.416;8.690;2023-09-12T09:15:26;22;21;
43280;PMS5003;62175;49.416;8.690;2023-09-12T09:17:55;20;19;
43280;PMS5003;62175;49.416;8.690;2023-09-12T09:20:25;26;26;
43280;PMS5003;62175;49.416;8.690;2023-09-12T09:22:58;23;19;
43280;PMS5003;62175;49.416;8.690;2023-09-12T09:25:26;40;40;
43280;PMS5003;62175;49.416;8.690;2023-09-12T09:27:54;42;40;
43280;PMS5003;62175;49.416;8.690;2023-09-12T09:30:38;38;37;
43280;PMS5003;62175;49.416;8.690;2023-09-12T09:33:06;39;37;
43280;PMS5003;62175;49.416;8.690;2023-09-12T09:35:34;22;22;
43280;PMS5003;62175;49.416;8.690;2023-09-12T09:38:02;26;26;
43280;PMS5003;62175;49.416;8.690;2023-09-12T09:40:31;20;20;
43280;PMS5003;62175;49.416;8.690;2023-09-12T09:42:59;20;19;
43280;PMS5003;62175;49.416;8.690;2023-09-12T09:45:27;20;18;
43280;PMS5003;62175;49.416;8.690;2023-09-12T09:47:56;20;18;
43280;PMS5003;62175;49.416;8.690;2023-09-12T09:50:23;23;23;
43280;PMS5003;62175;49.416;8.690;2023-09-12T09:52:53;19;19;
43280;PMS5003;62175;49.416;8.690;2023-09-12T09:55:21;22;22;
43280;PMS5003;62175;49.416;8.690;2023-09-12T09:57:48;23;22;
43280;PMS5003;62175;49.416;8.690;2023-09-12T10:00:16;37;37;
43280;PMS5003;62175;49.416;8.690;2023-09-12T10:02:43;38;33;
43280;PMS5003;62175;49.416;8.690;2023-09-12T10:05:11;25;22;
43280;PMS5003;62175;49.416;8.690;2023-09-12T10:07:41;24;22;
43280;PMS5003;62175;49.416;8.690;2023-09-12T10:10:12;32;32;
43280;PMS5003;62175;49.416;8.690;2023-09-12T10:12:42;42;39;
43280;PMS5003;62175;49.416;8.690;2023-09-12T10:15:17;31;30;
43280;PMS5003;62175;49.416;8.690;2023-09-12T10:17:46;39;36;
43280;PMS5003;62175;49.416;8.690;2023-09-12T10:20:19;43;42;
43280;PMS5003;62175;49.416;8.690;2023-09-12T10:22:52;43;42;
43280;PMS5003;62175;49.416;8.690;2023-09-12T10:25:27;33;32;
43280;PMS5003;62175;49.416;8.690;2023-09-12T10:27:56;38;38;
43280;PMS5003;62175;49.416;8.690;2023-09-12T10:30:23;42;39;
43280;PMS5003;62175;49.416;8.690;2023-09-12T10:32:51;27;27;
43280;PMS5003;62175;49.416;8.690;2023-09-12T10:35:20;43;40;
43280;PMS5003;62175;49.416;8.690;2023-09-12T10:37:47;43;43;
43280;PMS5003;62175;49.416;8.690;2023-09-12T10:40:17;21;20;
43280;PMS5003;62175;49.416;8.690;2023-09-12T10:42:46;19;18;
43280;PMS5003;62175;49.416;8.690;2023-09-12T10:45:15;35;31;
43280;PMS5003;62175;49.416;8.690;2023-09-12T10:47:42;33;31;
43280;PMS5003;62175;49.416;8.690;2023-09-12T10:50:09;28;28;
43280;PMS5003;62175;49.416;8.690;2023-09-12T10:52:37;28;27;
43280;PMS5003;62175;49.416;8.690;2023-09-12T10:55:04;44;43;
43280;PMS5003;62175;49.416;8.690;2023-09-12T10:57:32;44;43;
43280;PMS5003;62175;49.416;8.690;2023-09-12T11:00:16;37;34;
43280;PMS5003;62175;49.416;8.690;2023-09-12T11:02:43;35;31;
43280;PMS5003;62175;49.416;8.690;2023-09-12T11:05:51;47;45;
43280;PMS5003;62175;49.416;8.690;2023-09-12T11:08:19;47;45;
43280;PMS5003;62175;49.416;8.690;2023-09-12T11:10:53;39;37;
43280;PMS5003;62175;49.416;8.690;2023-09-12T11:13:44;33;33;
43280;PMS5003;62175;49.416;8.690;2023-09-12T11:16:11;23;23;
43280;PMS5003;62175;49.416;8.690;2023-09-12T11:19:25;36;35;
43280;PMS5003;62175;49.416;8.690;2023-09-12T11:21:53;32;30;
43280;PMS5003;62175;49.416;8.690;2023-09-12T11:24:20;39;38;
43280;PMS5003;62175;49.416;8.690;2023-09-12T11:27:03;33;33;
43280;PMS5003;62175;49.416;8.690;2023-09-12T11:29:34;22;22;
43280;PMS5003;62175;49.416;8.690;2023-09-12T11:32:03;28;24;
43280;PMS5003;62175;49.416;8.690;2023-09-12T11:34:36;22;21;
43280;PMS5003;62175;49.416;8.690;2023-09-12T11:37:04;26;25;
43280;PMS5003;62175;49.416;8.690;2023-09-12T11:39:32;25;24;
43280;PMS5003;62175;49.416;8.690;2023-09-12T11:42:01;20;19;
43280;PMS5003;62175;49.416;8.690;2023-09-12T11:44:29;19;19;
43280;PMS5003;62175;49.416;8.690;2023-09-12T11:46:59;21;20;
43280;PMS5003;62175;49.416;8.690;2023-09-12T11:49:27;22;21;
43280;PMS5003;62175;49.416;8.690;2023-09-12T11:51:54;22;22;
43280;PMS5003;62175;49.416;8.690;2023-09-12T11:54:24;21;19;
43280;PMS5003;62175;49.416;8.690;2023-09-12T11:56:51;19;18;
43280;PMS5003;62175;49.416;8.690;2023-09-12T11:59:19;21;20;
43280;PMS5003;62175;49.416;8.690;2023-09-12T12:01:46;19;19;
43280;PMS5003;62175;49.416;8.690;2023-09-12T12:04:14;24;22;
43280;PMS5003;62175;49.416;8.690;2023-09-12T12:06:41;19;18;
43280;PMS5003;62175;49.416;8.690;2023-09-12T12:09:10;20;20;
43280;PMS5003;62175;49.416;8.690;2023-09-12T12:11:38;19;18;
43280;PMS5003;62175;49.416;8.690;2023-09-12T12:14:10;21;19;
43280;PMS5003;62175;49.416;8.690;2023-09-12T12:16:38;20;20;
43280;PMS5003;62175;49.416;8.690;2023-09-12T12:19:05;25;23;
43280;PMS5003;62175;49.416;8.690;2023-09-12T12:21:32;22;21;
43280;PMS5003;62175;49.416;8.690;2023-09-12T12:24:00;19;19;
43280;PMS5003;62175;49.416;8.690;2023-09-12T12:26:27;21;20;
43280;PMS5003;62175;49.416;8.690;2023-09-12T12:28:54;19;19;
43280;PMS5003;62175;49.416;8.690;2023-09-12T12:31:21;22;21;
43280;PMS5003;62175;49.416;8.690;2023-09-12T12:33:49;24;22;
43280;PMS5003;62175;49.416;8.690;2023-09-12T12:36:16;20;18;
43280;PMS5003;62175;49.416;8.690;2023-09-12T12:38:43;28;27;
43280;PMS5003;62175;49.416;8.690;2023-09-12T12:41:13;20;20;
43280;PMS5003;62175;49.416;8.690;2023-09-12T12:43:42;25;24;
43280;PMS5003;62175;49.416;8.690;2023-09-12T12:46:10;37;37;
43280;PMS5003;62175;49.416;8.690;2023-09-12T12:48:38;41;38;
43280;PMS5003;62175;49.416;8.690;2023-09-12T12:51:16;26;25;
43280;PMS5003;62175;49.416;8.690;2023-09-12T12:53:45;38;37;
43280;PMS5003;62175;49.416;8.690;2023-09-12T12:56:13;22;20;
43280;PMS5003;62175;49.416;8.690;2023-09-12T12:58:48;25;22;
43280;PMS5003;62175;49.416;8.690;2023-09-12T13:01:16;31;30;
43280;PMS5003;62175;49.416;8.690;2023-09-12T13:03:43;25;24;
43280;PMS5003;62175;49.416;8.690;2023-09-12T13:06:11;26;25;
43280;PMS5003;62175;49.416;8.690;2023-09-12T13:08:40;23;19;
43280;PMS5003;62175;49.416;8.690;2023-09-12T13:11:07;26;26;
43280;PMS5003;62175;49.416;8.690;2023-09-12T13:13:35;28;27;
43280;PMS5003;62175;49.416;8.690;2023-09-12T13:16:02;19;17;
43280;PMS5003;62175;49.416;8.690;2023-09-12T13:18:30;34;34;
43280;PMS5003;62175;49.416;8.690;2023-09-12T13:20:57;34;31;
43280;PMS5003;62175;49.416;8.690;2023-09-12T13:23:25;22;22;
43280;PMS5003;62175;49.416;8.690;2023-09-12T13:25:53;28;27;
43280;PMS5003;62175;49.416;8.690;2023-09-12T13:28:21;25;25;
43280;PMS5003;62175;49.416;8.690;2023-09-12T13:30:49;20;19;
43280;PMS5003;62175;49.416;8.690;2023-09-12T13:33:16;22;22;
43280;PMS5003;62175;49.416;8.690;2023-09-12T13:35:43;26;24;
43280;PMS5003;62175;49.416;8.690;2023-09-12T13:38:10;25;23;
43280;PMS5003;62175;49.416;8.690;2023-09-12T13:40:37;23;22;
43280;PMS5003;62175;49.416;8.690;2023-09-12T13:43:05;27;27;
43280;PMS5003;62175;49.416;8.690;2023-09-12T13:45:33;21;20;
43280;PMS5003;62175;49.416;8.690;2023-09-12T13:48:01;40;38;
43280;PMS5003;62175;49.416;8.690;2023-09-12T13:50:29;28;27;
43280;PMS5003;62175;49.416;8.690;2023-09-12T13:52:57;35;34;
43280;PMS5003;62175;49.416;8.690;2023-09-12T13:55:25;36;35;
43280;PMS5003;62175;49.416;8.690;2023-09-12T13:57:52;27;27;
43280;PMS5003;62175;49.416;8.690;2023-09-12T14:00:20;20;20;
43280;PMS5003;62175;49.416;8.690;2023-09-12T14:02:46;47;46;
43280;PMS5003;62175;49.416;8.690;2023-09-12T14:05:13;25;24;
43280;PMS5003;62175;49.416;8.690;2023-09-12T14:07:41;46;44;
43280;PMS5003;62175;49.416;8.690;2023-09-12T14:10:08;37;36;
43280;PMS5003;62175;49.416;8.690;2023-09-12T14:12:36;34;33;
43280;PMS5003;62175;49.416;8.690;2023-09-12T14:15:03;26;25;
43280;PMS5003;62175;49.416;8.690;2023-09-12T14:17:30;29;27;
43280;PMS5003;62175;49.416;8.690;2023-09-12T14:19:57;32;31;
43280;PMS5003;62175;49.416;8.690;2023-09-12T14:22:25;29;27;
43280;PMS5003;62175;49.416;8.690;2023-09-12T14:24:52;28;27;
43280;PMS5003;62175;49.416;8.690;2023-09-12T14:27:19;26;25;
43280;PMS5003;62175;49.416;8.690;2023-09-12T14:29:46;25;24;
43280;PMS5003;62175;49.416;8.690;2023-09-12T14:32:13;29;28;
43280;PMS5003;62175;49.416;8.690;2023-09-12T14:34:41;27;26;
43280;PMS5003;62175;49.416;8.690;2023-09-12T14:37:08;28;26;
43280;PMS5003;62175;49.416;8.690;2023-09-12T14:39:36;30;28;
43280;PMS5003;62175;49.416;8.690;2023-09-12T14:42:02;23;21;
43280;PMS5003;62175;49.416;8.690;2023-09-12T14:44:30;19;19;
43280;PMS5003;62175;49.416;8.690;2023-09-12T14:46:57;29;28;
43280;PMS5003;62175;49.416;8.690;2023-09-12T14:49:24;23;20;
43280;PMS5003;62175;49.416;8.690;2023-09-12T14:51:51;19;18;
43280;PMS5003;62175;49.416;8.690;2023-09-12T14:54:18;21;20;
43280;PMS5003;62175;49.416;8.690;2023-09-12T14:56:45;20;19;
43280;PMS5003;62175;49.416;8.690;2023-09-12T14:59:12;31;30;
43280;PMS5003;62175;49.416;8.690;2023-09-12T15:01:39;21;21;
43280;PMS5003;62175;49.416;8.690;2023-09-12T15:04:06;25;23;
43280;PMS5003;62175;49.416;8.690;2023-09-12T15:06:34;19;18;
43280;PMS5003;62175;49.416;8.690;2023-09-12T15:09:02;21;20;
43280;PMS5003;62175;49.416;8.690;2023-09-12T15:11:30;25;25;
43280;PMS5003;62175;49.416;8.690;2023-09-12T15:13:59;29;28;
43280;PMS5003;62175;49.416;8.690;2023-09-12T15:16:26;30;30;
43280;PMS5003;62175;49.416;8.690;2023-09-12T15:18:53;28;27;
43280;PMS5003;62175;49.416;8.690;2023-09-12T15:21:20;19;19;
43280;PMS5003;62175;49.416;8.690;2023-09-12T15:23:51;19;18;
43280;PMS5003;62175;49.416;8.690;2023-09-12T15:26:18;21;19;
43280;PMS5003;62175;49.416;8.690;2023-09-12T15:28:46;25;25;
43280;PMS5003;62175;49.416;8.690;2023-09-12T15:31:13;18;18;
43280;PMS5003;62175;49.416;8.690;2023-09-12T15:33:40;21;21;
43280;PMS5003;62175;49.416;8.690;2023-09-12T15:36:07;15;14;
43280;PMS5003;62175;49.416;8.690;2023-09-12T15:38:34;20;19;
43280;PMS5003;62175;49.416;8.690;2023-09-12T15:41:01;17;16;
43280;PMS5003;62175;49.416;8.690;2023-09-12T15:43:29;17;16;
43280;PMS5003;62175;49.416;8.690;2023-09-12T15:45:56;22;22;
43280;PMS5003;62175;49.416;8.690;2023-09-12T15:48:23;28;27;
43280;PMS5003;62175;49.416;8.690;2023-09-12T15:50:51;17;17;
43280;PMS5003;62175;49.416;8.690;2023-09-12T15:53:17;22;22;
43280;PMS5003;62175;49.416;8.690;2023-09-12T15:55:44;23;22;
43280;PMS5003;62175;49.416;8.690;2023-09-12T15:58:11;26;25;
43280;PMS5003;62175;49.416;8.690;2023-09-12T16:00:38;21;20;
43280;PMS5003;62175;49.416;8.690;2023-09-12T16:03:06;17;15;
43280;PMS5003;62175;49.416;8.690;2023-09-12T16:05:34;22;22;
43280;PMS5003;62175;49.416;8.690;2023-09-12T16:08:02;21;21;
43280;PMS5003;62175;49.416;8.690;2023-09-12T16:10:31;15;15;
43280;PMS5003;62175;49.416;8.690;2023-09-12T16:12:58;21;18;
43280;PMS5003;62175;49.416;8.690;2023-09-12T16:15:25;22;21;
43280;PMS5003;62175;49.416;8.690;2023-09-12T16:17:52;17;16;
43280;PMS5003;62175;49.416;8.690;2023-09-12T16:20:19;12;12;
43280;PMS5003;62175;49.416;8.690;2023-09-12T16:22:46;13;12;
43280;PMS5003;62175;49.416;8.690;2023-09-12T16:25:13;21;21;